This is the latest recevied weather packets stored in our database for station/object SP6PWT-13. If no packets are shown the sender has not sent any weather packets the latest 1 day(s).
| Time | Temp. | Humidity | Pressure | Rain* | Wind** | Luminosity | Snow |
|---|---|---|---|---|---|---|---|
| 1777962723 | 16.11° C | 73% | 992.6 hPa | 0 mm | 0 m/s | 82 W/m² | - |
| 1777962422 | 15.56° C | 73% | 992.9 hPa | 0 mm | 0 m/s | 104 W/m² | - |
| 1777962122 | 15.56° C | 74% | 992.8 hPa | 0 mm | 0.45 m/s, 58° | 131 W/m² | - |
| 1777961821 | 15.56° C | 74% | 992.7 hPa | 0 mm | 0.89 m/s, 59° | 115 W/m² | - |
| 1777961520 | 15° C | 75% | 992.8 hPa | 0 mm | 0.89 m/s, 38° | 99 W/m² | - |
| 1777961220 | 15° C | 74% | 992.8 hPa | 0 mm | 2.24 m/s, 46° | 89 W/m² | - |
| 1777960919 | 15° C | 74% | 992.8 hPa | 0 mm | 0.45 m/s, 52° | 78 W/m² | - |
| 1777960618 | 15.56° C | 74% | 992.8 hPa | 0 mm | 0 m/s | 72 W/m² | - |
| 1777960317 | 15° C | 73% | 993 hPa | 0 mm | 0.45 m/s, 47° | 67 W/m² | - |
| 1777960016 | 15° C | 74% | 992.9 hPa | 0 mm | 0 m/s | 72 W/m² | - |
| 1777959716 | 15° C | 74% | 993.2 hPa | 0 mm | 0.89 m/s, 67° | 69 W/m² | - |
| 1777959415 | 15° C | 74% | 993 hPa | 0 mm | 0.89 m/s, 98° | 65 W/m² | - |
| 1777959115 | 15° C | 74% | 993.2 hPa | 0 mm | 0 m/s | 62 W/m² | - |
| 1777958815 | 15.56° C | 73% | 993.1 hPa | 0 mm | 0 m/s | 71 W/m² | - |
| 1777958514 | 15.56° C | 73% | 993 hPa | 0 mm | 0.45 m/s, 78° | 76 W/m² | - |
| 1777958214 | 15.56° C | 72% | 993.2 hPa | 0 mm | 0.45 m/s, 95° | 94 W/m² | - |
| 1777957914 | 15.56° C | 73% | 993.1 hPa | 0 mm | 0 m/s | 111 W/m² | - |
| 1777957613 | 15° C | 74% | 993.3 hPa | 0 mm | 0 m/s | 111 W/m² | - |
| 1777957313 | 13.89° C | 77% | 993.2 hPa | 0 mm | 0 m/s | 87 W/m² | - |
| 1777957012 | 13.89° C | 79% | 993.3 hPa | 0 mm | 0 m/s | 87 W/m² | - |
| 1777956712 | 13.89° C | 78% | 993.2 hPa | 0 mm | 0.89 m/s, 153° | 67 W/m² | - |
| 1777956401 | 14.44° C | 75% | 993.3 hPa | 0 mm | 1.34 m/s, 113° | 62 W/m² | - |
| 1777956101 | 14.44° C | 76% | 993.2 hPa | 0 mm | 0 m/s | 57 W/m² | - |
| 1777955800 | 14.44° C | 75% | 993.1 hPa | 0 mm | 0 m/s | 55 W/m² | - |
| 1777955500 | 14.44° C | 76% | 993.3 hPa | 0 mm | 0 m/s | 63 W/m² | - |
* Rain latest hour (hover to see other rain measurements)
** Current wind speed in m/s (hover to see current wind gust speed)